Buxtehude — V2BY8 — position and weather

sailwx.info

Track history (hours):
 
Tides and Currents Weather Stations Pressure Air Temp Water Temp Dewpoint Dewpoint Depression Visibility Wind Speed Wind Dir Waves Ship Positions

Buxtehude

Last reported at 2017-Apr-26 08:31 UTC. Time now 2017-Apr-27 18:55 UTC.
Position N 39°44' E 025°51'.

Length 134 m; draft 7.4 m.

Type: Ship (hazmat cat A). MMSI: 304962000.

Date/timePositionNaut miles runAvg speedWind from/ knotsBaromVisibWave heightAir tempDewpointWater temp
2017-Apr-26 08:31N 39°44' E 025°51'014.7
2017-Apr-26 08:30N 39°44' E 025°51'815.5
2017-Apr-26 08:00N 39°52' E 025°53'142 4.9
2017-Apr-25 03:22N 40°56' E 028°39'0 0.0
2017-Apr-24 23:20N 40°56' E 028°39'0 0.0
2017-Apr-24 22:57N 40°56' E 028°39'810.5
2017-Apr-24 22:14N 40°56' E 028°49'416.1
2017-Apr-24 22:00N 40°56' E 028°54'331 8.3
2017-Apr-23 06:09N 46°16' E 030°54'212.6
2017-Apr-23 06:01N 46°17' E 030°53'612.6
2017-Apr-23 05:30N 46°23' E 030°51'612.3
2017-Apr-23 05:01N 46°29' E 030°48'1 2.3
2017-Apr-23 04:26N 46°29' E 030°46'0 0.0
2017-Apr-23 03:56N 46°29' E 030°46'0 0.0
2017-Apr-23 03:29N 46°29' E 030°46'0 0.0
2017-Apr-23 02:56N 46°29' E 030°46'0 0.0
2017-Apr-23 02:29N 46°29' E 030°46'0 0.0
2017-Apr-23 01:55N 46°29' E 030°46'0 0.0
2017-Apr-23 01:28N 46°29' E 030°46'0 0.0
2017-Apr-23 00:46N 46°29' E 030°46'0 0.0
2017-Apr-23 00:22N 46°29' E 030°46'0 0.0
2017-Apr-23 00:01N 46°29' E 030°46'0 0.0
2017-Apr-22 23:27N 46°29' E 030°46'0 0.0
2017-Apr-22 22:54N 46°29' E 030°46'0 0.0
2017-Apr-22 22:27N 46°29' E 030°46'0 0.0
2017-Apr-22 21:57N 46°29' E 030°46'0 0.0
2017-Apr-22 21:29N 46°29' E 030°46'0 0.0
2017-Apr-22 20:59N 46°29' E 030°46'0 0.0
2017-Apr-22 20:23N 46°29' E 030°46'0 0.0
2017-Apr-22 19:50N 46°29' E 030°46'0 0.0
2017-Apr-22 19:26N 46°29' E 030°46'0 0.0
2017-Apr-22 19:00N 46°29' E 030°46'1 1.8
2017-Apr-22 18:30N 46°30' E 030°46'2 3.9
2017-Apr-22 18:00N 46°30' E 030°49'510.8
2017-Apr-22 17:30N 46°25' E 030°52'  
2017-Apr-18 10:18N 41°02' E 029°00'3 9.2
2017-Apr-18 09:59N 40°59' E 028°60'4 8.3
2017-Apr-18 09:30N 40°55' E 028°57'510.9
2017-Apr-18 09:00N 40°51' E 028°53'7 0.8
2017-Apr-17 23:38N 40°45' E 028°47'0 1.0
2017-Apr-17 23:23N 40°45' E 028°47'6 0.7
2017-Apr-17 14:08N 40°51' E 028°43'6 0.7
2017-Apr-17 05:37N 40°56' E 028°39'0 0.0
2017-Apr-17 01:59N 40°56' E 028°39'4 7.6
2017-Apr-17 01:27N 40°53' E 028°43'613.2
2017-Apr-17 00:59N 40°49' E 028°50'816.5
2017-Apr-17 00:30N 40°49' E 029°00'816.7
2017-Apr-17 00:00N 40°47' E 029°11'816.5
2017-Apr-16 23:30N 40°45' E 029°21'611.9
2017-Apr-16 23:00N 40°45' E 029°29'10 1.6
2017-Apr-16 16:21N 40°46' E 029°43'7 7.4
2017-Apr-16 15:21N 40°45' E 029°33'3 9.5
2017-Apr-16 15:01N 40°45' E 029°29'611.2
2017-Apr-16 14:29N 40°43' E 029°21'1616.6
2017-Apr-16 13:30N 40°42' E 028°60'  
Track history (hours):
 
Tides and Currents Weather Stations Pressure Air Temp Water Temp Dewpoint Dewpoint Depression Visibility Wind Speed Wind Dir Waves Ship Positions

Buxtehude

Last reported at 2017-Apr-26 08:31 UTC. Time now 2017-Apr-27 18:55 UTC.
Position N 39°44' E 025°51'.

Length 134 m; draft 7.4 m.

Type: Ship (hazmat cat A). MMSI: 304962000.

Date/timePositionNaut miles runAvg speedWind from/ knotsBaromVisibWave heightAir tempDewpointWater temp
2017-Apr-26 08:31N 39°44' E 025°51'014.7
2017-Apr-26 08:30N 39°44' E 025°51'815.5
2017-Apr-26 08:00N 39°52' E 025°53'142 4.9
2017-Apr-25 03:22N 40°56' E 028°39'0 0.0
2017-Apr-24 23:20N 40°56' E 028°39'0 0.0
2017-Apr-24 22:57N 40°56' E 028°39'810.5
2017-Apr-24 22:14N 40°56' E 028°49'416.1
2017-Apr-24 22:00N 40°56' E 028°54'331 8.3
2017-Apr-23 06:09N 46°16' E 030°54'212.6
2017-Apr-23 06:01N 46°17' E 030°53'612.6
2017-Apr-23 05:30N 46°23' E 030°51'612.3
2017-Apr-23 05:01N 46°29' E 030°48'1 2.3
2017-Apr-23 04:26N 46°29' E 030°46'0 0.0
2017-Apr-23 03:56N 46°29' E 030°46'0 0.0
2017-Apr-23 03:29N 46°29' E 030°46'0 0.0
2017-Apr-23 02:56N 46°29' E 030°46'0 0.0
2017-Apr-23 02:29N 46°29' E 030°46'0 0.0
2017-Apr-23 01:55N 46°29' E 030°46'0 0.0
2017-Apr-23 01:28N 46°29' E 030°46'0 0.0
2017-Apr-23 00:46N 46°29' E 030°46'0 0.0
2017-Apr-23 00:22N 46°29' E 030°46'0 0.0
2017-Apr-23 00:01N 46°29' E 030°46'0 0.0
2017-Apr-22 23:27N 46°29' E 030°46'0 0.0
2017-Apr-22 22:54N 46°29' E 030°46'0 0.0
2017-Apr-22 22:27N 46°29' E 030°46'0 0.0
2017-Apr-22 21:57N 46°29' E 030°46'0 0.0
2017-Apr-22 21:29N 46°29' E 030°46'0 0.0
2017-Apr-22 20:59N 46°29' E 030°46'0 0.0
2017-Apr-22 20:23N 46°29' E 030°46'0 0.0
2017-Apr-22 19:50N 46°29' E 030°46'0 0.0
2017-Apr-22 19:26N 46°29' E 030°46'0 0.0
2017-Apr-22 19:00N 46°29' E 030°46'1 1.8
2017-Apr-22 18:30N 46°30' E 030°46'2 3.9
2017-Apr-22 18:00N 46°30' E 030°49'510.8
2017-Apr-22 17:30N 46°25' E 030°52'  
2017-Apr-18 10:18N 41°02' E 029°00'3 9.2
2017-Apr-18 09:59N 40°59' E 028°60'4 8.3
2017-Apr-18 09:30N 40°55' E 028°57'510.9
2017-Apr-18 09:00N 40°51' E 028°53'7 0.8
2017-Apr-17 23:38N 40°45' E 028°47'0 1.0
2017-Apr-17 23:23N 40°45' E 028°47'6 0.7
2017-Apr-17 14:08N 40°51' E 028°43'6 0.7
2017-Apr-17 05:37N 40°56' E 028°39'0 0.0
2017-Apr-17 01:59N 40°56' E 028°39'4 7.6
2017-Apr-17 01:27N 40°53' E 028°43'613.2
2017-Apr-17 00:59N 40°49' E 028°50'816.5
2017-Apr-17 00:30N 40°49' E 029°00'816.7
2017-Apr-17 00:00N 40°47' E 029°11'816.5
2017-Apr-16 23:30N 40°45' E 029°21'611.9
2017-Apr-16 23:00N 40°45' E 029°29'10 1.6
2017-Apr-16 16:21N 40°46' E 029°43'7 7.4
2017-Apr-16 15:21N 40°45' E 029°33'3 9.5
2017-Apr-16 15:01N 40°45' E 029°29'611.2
2017-Apr-16 14:29N 40°43' E 029°21'1616.6
2017-Apr-16 13:30N 40°42' E 028°60'  

Dump ship's entire track history